| time (UTC) | temp F | wind direction | speed MPH | gust MPH | rain 1hr in | rain 24hr in | rain mn in | humidity % | barometer mb |
| 20260503202955 | 59 | 149 | 3.0 | 10.0 | 0.00 | 0.00 | 0.00 | 71 | 1011.6 |
| 20260503201955 | 60 | 182 | 2.0 | 7.0 | 0.00 | 0.00 | 0.00 | 66 | 1011.6 |
| 20260503200955 | 61 | 184 | 2.0 | 4.0 | 0.00 | 0.00 | 0.00 | 67 | 1011.7 |
| 20260503200015 | 61 | 188 | 2.0 | 5.0 | 0.00 | 0.00 | 0.00 | 69 | 1011.8 |
| 20260503194955 | 60 | 174 | 2.0 | 5.0 | 0.00 | 0.00 | 0.00 | 70 | 1011.7 |
| 20260503193956 | 60 | 186 | 2.0 | 5.0 | 0.00 | 0.00 | 0.00 | 70 | 1011.9 |
| 20260503192955 | 60 | 199 | 2.0 | 4.0 | 0.00 | 0.00 | 0.00 | 71 | 1011.8 |
| 20260503192016 | 59 | 187 | 2.0 | 5.0 | 0.00 | 0.00 | 0.00 | 73 | 1011.8 |
| 20260503190955 | 60 | 187 | 2.0 | 6.0 | 0.00 | 0.00 | 0.00 | 70 | 1011.8 |
| 20260503185955 | 60 | 166 | 2.0 | 6.0 | 0.00 | 0.00 | 0.00 | 73 | 1011.8 |
| 20260503184955 | 58 | 148 | 1.0 | 7.0 | 0.00 | 0.00 | 0.00 | 71 | 1011.7 |
| 20260503183954 | 59 | 184 | 2.0 | 4.0 | 0.00 | 0.00 | 0.00 | 71 | 1011.7 |
| 20260503182955 | 58 | 172 | 2.0 | 4.0 | 0.00 | 0.00 | 0.00 | 72 | 1011.7 |
| 20260503182015 | 58 | 174 | 2.0 | 6.0 | 0.00 | 0.00 | 0.00 | 74 | 1011.7 |
| 20260503180955 | 58 | 181 | 2.0 | 7.0 | 0.00 | 0.00 | 0.00 | 74 | 1011.7 |
| 20260503180035 | 58 | 88 | 1.0 | 4.0 | 0.00 | 0.00 | 0.00 | 73 | 1011.7 |
| 20260503175015 | 58 | 18 | 2.0 | 4.0 | 0.00 | 0.00 | 0.00 | 73 | 1011.8 |
| 20260503173955 | 58 | 24 | 1.0 | 3.0 | 0.00 | 0.00 | 0.00 | 74 | 1011.7 |
| 20260503172955 | 57 | 17 | 1.0 | 3.0 | 0.00 | 0.00 | 0.00 | 78 | 1011.7 |
| 20260503171954 | 56 | 295 | 1.0 | 3.0 | 0.00 | 0.00 | 0.00 | 78 | 1011.7 |
| 20260503170955 | 56 | 54 | 1.0 | 3.0 | 0.00 | 0.00 | 0.00 | 82 | 1011.7 |
| 20260503150956 | 51 | 142 | 1.0 | 3.0 | 0.00 | 0.00 | 0.00 | 93 | 1011.2 |
| 20260503130955 | 51 | 0.0 | 0.0 | 0.00 | 0.00 | 0.00 | 92 | 1009.8 | |
| 20260503081015 | 52 | 303 | 1.0 | 3.0 | 0.00 | 0.00 | 0.00 | 87 | 1010.4 |
| 20260503071955 | 52 | 278 | 0.0 | 3.0 | 0.00 | 0.00 | 0.00 | 86 | 1010.3 |
| 20260503070955 | 52 | 312 | 0.0 | 3.0 | 0.00 | 0.00 | 0.00 | 86 | 1010.3 |
| 20260503054955 | 52 | 255 | 1.0 | 8.0 | 0.00 | 0.00 | 0.00 | 85 | 1010.5 |
| 20260503054015 | 53 | 288 | 1.0 | 6.0 | 0.00 | 0.00 | 0.00 | 85 | 1010.6 |
| 20260503052955 | 53 | 268 | 1.0 | 3.0 | 0.00 | 0.00 | 0.00 | 85 | 1010.6 |
| 20260503051955 | 53 | 314 | 1.0 | 2.0 | 0.00 | 0.00 | 0.00 | 84 | 1010.7 |
| 20260503050955 | 53 | 295 | 1.0 | 6.0 | 0.00 | 0.00 | 0.00 | 84 | 1010.7 |
| 20260503045955 | 53 | 294 | 1.0 | 4.0 | 0.00 | 0.00 | 0.00 | 84 | 1010.8 |
| 20260503044955 | 53 | 318 | 1.0 | 4.0 | 0.00 | 0.00 | 0.00 | 84 | 1010.6 |
| 20260503043955 | 53 | 314 | 1.0 | 5.0 | 0.00 | 0.00 | 0.00 | 84 | 1010.5 |
| 20260503042955 | 53 | 311 | 1.0 | 8.0 | 0.00 | 0.00 | 0.00 | 84 | 1010.4 |
| 20260503041955 | 53 | 291 | 2.0 | 5.0 | 0.00 | 0.00 | 0.00 | 83 | 1010.4 |
| 20260503040955 | 53 | 274 | 1.0 | 3.0 | 0.00 | 0.00 | 0.00 | 84 | 1010.2 |
| 20260503035955 | 53 | 334 | 1.0 | 3.0 | 0.00 | 0.00 | 0.00 | 83 | 1010.1 |
| 20260503034955 | 54 | 294 | 1.0 | 3.0 | 0.00 | 0.00 | 0.00 | 83 | 1009.9 |
| 20260503033955 | 54 | 306 | 1.0 | 9.0 | 0.00 | 0.00 | 0.00 | 83 | 1009.8 |
| 20260503032955 | 54 | 264 | 1.0 | 4.0 | 0.00 | 0.00 | 0.00 | 83 | 1009.7 |
| 20260503032035 | 54 | 250 | 1.0 | 3.0 | 0.00 | 0.00 | 0.00 | 83 | 1009.6 |
| 20260503030955 | 55 | 281 | 1.0 | 4.0 | 0.00 | 0.00 | 0.00 | 83 | 1009.5 |
| 20260503030015 | 55 | 316 | 2.0 | 5.0 | 0.00 | 0.00 | 0.00 | 82 | 1009.5 |
| 20260503024956 | 55 | 301 | 1.0 | 4.0 | 0.00 | 0.00 | 0.00 | 82 | 1009.5 |
| 20260503023955 | 56 | 264 | 1.0 | 3.0 | 0.00 | 0.00 | 0.00 | 82 | 1009.3 |
| 20260503022956 | 56 | 300 | 1.0 | 6.0 | 0.00 | 0.00 | 0.00 | 81 | 1009.2 |
| 20260503021955 | 56 | 302 | 1.0 | 5.0 | 0.00 | 0.00 | 0.00 | 81 | 1009.2 |
| 20260503020955 | 57 | 317 | 1.0 | 10.0 | 0.00 | 0.00 | 0.00 | 80 | 1009.1 |
| 20260503015955 | 57 | 306 | 1.0 | 4.0 | 0.00 | 0.00 | 0.00 | 78 | 1009.2 |
| 20260503014955 | 58 | 357 | 1.0 | 3.0 | 0.00 | 0.00 | 0.00 | 78 | 1009.2 |
| 20260503014015 | 59 | 310 | 1.0 | 5.0 | 0.00 | 0.00 | 0.00 | 78 | 1009.3 |
| 20260503012955 | 59 | 153 | 1.0 | 2.0 | 0.00 | 0.00 | 0.00 | 77 | 1009.2 |
| 20260503011955 | 60 | 219 | 1.0 | 5.0 | 0.00 | 0.00 | 0.00 | 76 | 1009.2 |
| 20260503010955 | 61 | 301 | 1.0 | 4.0 | 0.00 | 0.00 | 0.00 | 74 | 1009.2 |
| 20260503010015 | 61 | 210 | 1.0 | 4.0 | 0.00 | 0.00 | 0.00 | 75 | 1009.2 |
| 20260503004955 | 62 | 149 | 0.0 | 6.0 | 0.00 | 0.00 | 0.00 | 74 | 1009.3 |
| 20260503003955 | 63 | 167 | 1.0 | 5.0 | 0.00 | 0.00 | 0.00 | 73 | 1009.2 |
| 20260503002955 | 63 | 99 | 1.0 | 7.0 | 0.00 | 0.00 | 0.00 | 71 | 1009.3 |
| 20260503001956 | 64 | 340 | 1.0 | 4.0 | 0.00 | 0.00 | 0.00 | 69 | 1009.3 |
| 20260503000955 | 66 | 240 | 2.0 | 4.0 | 0.00 | 0.00 | 0.00 | 67 | 1009.3 |
| 20260502235955 | 67 | 139 | 1.0 | 3.0 | 0.00 | 0.00 | 0.00 | 66 | 1009.3 |
| 20260502234956 | 67 | 21 | 2.0 | 4.0 | 0.00 | 0.00 | 0.00 | 67 | 1009.3 |
| 20260502234016 | 66 | 200 | 1.0 | 4.0 | 0.00 | 0.00 | 0.00 | 67 | 1009.4 |
| 20260502233015 | 66 | 126 | 2.0 | 7.0 | 0.00 | 0.00 | 0.00 | 68 | 1009.4 |
| 20260502231955 | 66 | 152 | 2.0 | 7.0 | 0.00 | 0.00 | 0.00 | 68 | 1009.5 |
| 20260502230956 | 65 | 140 | 3.0 | 7.0 | 0.00 | 0.00 | 0.00 | 68 | 1009.7 |
| 20260502225955 | 67 | 152 | 3.0 | 7.0 | 0.00 | 0.00 | 0.00 | 68 | 1009.8 |
| 20260502224955 | 65 | 154 | 4.0 | 10.0 | 0.00 | 0.00 | 0.00 | 68 | 1010.0 |
| 20260502224016 | 66 | 147 | 4.0 | 10.0 | 0.00 | 0.00 | 0.00 | 68 | 1010.2 |
| 20260502222955 | 66 | 153 | 5.0 | 11.0 | 0.00 | 0.00 | 0.00 | 67 | 1010.3 |
| 20260502222035 | 66 | 159 | 4.0 | 11.0 | 0.00 | 0.00 | 0.00 | 66 | 1010.5 |
| 20260502221016 | 66 | 161 | 3.0 | 9.0 | 0.00 | 0.00 | 0.00 | 67 | 1010.8 |
| 20260502215955 | 67 | 139 | 3.0 | 9.0 | 0.00 | 0.00 | 0.00 | 66 | 1010.9 |
| 20260502214955 | 67 | 170 | 3.0 | 9.0 | 0.00 | 0.00 | 0.00 | 67 | 1011.1 |
| 20260502213955 | 67 | 142 | 4.0 | 9.0 | 0.00 | 0.00 | 0.00 | 67 | 1011.3 |
| 20260502212955 | 66 | 166 | 2.0 | 4.0 | 0.00 | 0.00 | 0.00 | 68 | 1011.4 |
| 20260502211955 | 65 | 155 | 2.0 | 9.0 | 0.00 | 0.00 | 0.00 | 70 | 1011.4 |
| 20260502210955 | 64 | 149 | 3.0 | 8.0 | 0.00 | 0.00 | 0.00 | 70 | 1011.5 |
| 20260502205955 | 66 | 179 | 3.0 | 8.0 | 0.00 | 0.00 | 0.00 | 69 | 1011.7 |
| 20260502204955 | 64 | 192 | 3.0 | 6.0 | 0.00 | 0.00 | 0.00 | 74 | 1011.8 |
| 20260502203955 | 62 | 155 | 3.0 | 8.0 | 0.00 | 0.00 | 0.00 | 76 | 1012.0 |